createdAt,value
2019-03-19T00:00:57.639Z,11.90
2019-03-19T00:03:30.543Z,11.47
2019-03-19T00:06:03.421Z,15.40
2019-03-19T00:08:36.312Z,12.93
2019-03-19T00:11:09.145Z,11.23
2019-03-19T00:13:41.995Z,22.43
2019-03-19T00:16:14.757Z,14.60
2019-03-19T00:18:47.632Z,13.43
2019-03-19T00:21:20.428Z,7.07
2019-03-19T00:23:53.222Z,10.73
2019-03-19T00:26:26.038Z,9.53
2019-03-19T00:28:58.725Z,12.13
2019-03-19T00:31:31.522Z,17.43
2019-03-19T00:34:04.362Z,9.70
2019-03-19T00:36:37.249Z,8.30
2019-03-19T00:39:10.038Z,14.70
2019-03-19T00:41:42.797Z,11.20
2019-03-19T00:44:15.623Z,9.93
2019-03-19T00:46:48.427Z,10.47
2019-03-19T00:49:21.147Z,10.67
2019-03-19T00:51:53.884Z,15.77
2019-03-19T00:54:26.882Z,11.07
2019-03-19T00:56:59.690Z,10.07
2019-03-19T00:59:32.483Z,12.83
2019-03-19T01:02:06.291Z,12.60
2019-03-19T01:04:39.149Z,11.70
2019-03-19T01:07:12.042Z,10.03
2019-03-19T01:09:44.764Z,15.63
2019-03-19T01:12:17.514Z,11.27
2019-03-19T01:14:50.242Z,12.27
2019-03-19T01:17:22.927Z,11.07
2019-03-19T01:19:55.650Z,11.93
2019-03-19T01:22:28.362Z,10.97
2019-03-19T01:25:01.143Z,11.30
2019-03-19T01:27:33.867Z,19.93
2019-03-19T01:30:08.215Z,5.93
2019-03-19T01:32:41.003Z,7.47
2019-03-19T01:35:13.777Z,14.77
2019-03-19T01:37:46.550Z,14.33
2019-03-19T01:40:19.328Z,12.23
2019-03-19T01:42:52.011Z,17.47
2019-03-19T01:45:24.768Z,17.47
2019-03-19T01:47:57.572Z,8.27
2019-03-19T01:50:30.282Z,8.57
2019-03-19T01:53:03.152Z,16.37
2019-03-19T01:55:35.920Z,8.77
2019-03-19T01:58:08.692Z,13.20
2019-03-19T02:00:41.386Z,12.00
2019-03-19T02:03:14.219Z,11.83
2019-03-19T02:05:46.945Z,11.60
2019-03-19T02:08:19.690Z,21.77
2019-03-19T02:10:52.525Z,24.03
2019-03-19T02:13:25.281Z,12.23
2019-03-19T02:15:58.013Z,15.87
2019-03-19T02:18:30.817Z,8.97
2019-03-19T02:21:03.673Z,13.70
2019-03-19T02:23:36.609Z,15.57
2019-03-19T02:26:16.355Z,17.83
2019-03-19T02:28:43.951Z,11.17
2019-03-19T02:31:16.789Z,14.70
2019-03-19T02:33:49.785Z,19.77
2019-03-19T02:36:22.662Z,11.50
2019-03-19T02:38:55.541Z,11.97
2019-03-19T02:41:28.307Z,14.27
2019-03-19T02:44:01.009Z,20.87
2019-03-19T02:46:33.872Z,31.53
2019-03-19T02:49:06.732Z,11.07
2019-03-19T02:51:39.462Z,19.27
2019-03-19T02:54:12.195Z,12.93
2019-03-19T02:56:44.968Z,14.43
2019-03-19T02:59:17.724Z,12.33
2019-03-19T03:01:50.393Z,15.23
2019-03-19T03:04:23.195Z,19.77
2019-03-19T03:06:55.978Z,14.00
2019-03-19T03:09:28.718Z,14.20
2019-03-19T03:12:01.428Z,14.77
2019-03-19T03:14:34.318Z,13.53
2019-03-19T03:17:08.185Z,13.93
2019-03-19T03:19:40.976Z,14.60
2019-03-19T03:22:13.677Z,12.23
2019-03-19T03:24:46.366Z,14.90
2019-03-19T03:27:19.154Z,12.43
2019-03-19T03:29:52.027Z,12.53
2019-03-19T03:32:24.844Z,13.70
2019-03-19T03:34:57.536Z,18.93
2019-03-19T03:37:30.224Z,12.87
2019-03-19T03:40:02.929Z,14.67
2019-03-19T03:42:35.915Z,17.13
2019-03-19T03:45:09.383Z,18.10
2019-03-19T03:47:42.193Z,15.30
2019-03-19T03:50:14.940Z,11.77
2019-03-19T03:52:47.925Z,10.67
2019-03-19T03:55:20.617Z,14.03
2019-03-19T03:57:53.546Z,16.13
2019-03-19T04:00:26.416Z,12.23
2019-03-19T04:02:59.317Z,21.57
2019-03-19T04:05:32.177Z,20.63
2019-03-19T04:08:05.062Z,12.87
2019-03-19T04:10:37.805Z,12.47
2019-03-19T04:13:10.553Z,13.93
2019-03-19T04:15:44.165Z,12.53
2019-03-19T04:18:16.946Z,15.50
2019-03-19T04:20:49.753Z,17.00
2019-03-19T04:23:22.478Z,17.93
2019-03-19T04:25:55.241Z,13.83
2019-03-19T04:28:28.131Z,13.67
2019-03-19T04:31:00.915Z,13.90
2019-03-19T04:33:33.740Z,12.27
2019-03-19T04:36:09.446Z,14.57
2019-03-19T04:38:42.175Z,21.33
2019-03-19T04:41:15.019Z,13.20
2019-03-19T04:43:47.718Z,18.90
2019-03-19T04:46:20.443Z,19.40
2019-03-19T04:48:53.159Z,14.17
2019-03-19T04:51:25.985Z,17.07
2019-03-19T04:53:58.740Z,22.77
2019-03-19T04:56:31.443Z,10.87
2019-03-19T04:59:04.176Z,21.67
2019-03-19T05:01:36.914Z,14.47
2019-03-19T05:04:09.634Z,14.87
2019-03-19T05:06:42.478Z,16.27
2019-03-19T05:09:15.175Z,16.27
2019-03-19T05:11:47.935Z,16.77
2019-03-19T05:14:20.665Z,16.33
2019-03-19T05:16:53.715Z,11.67
2019-03-19T05:19:26.433Z,17.90
2019-03-19T05:22:00.888Z,15.47
2019-03-19T05:24:33.670Z,16.07
2019-03-19T05:27:06.545Z,15.27
2019-03-19T05:29:39.346Z,17.63
2019-03-19T05:32:33.767Z,19.63
2019-03-19T05:35:09.625Z,23.43
2019-03-19T05:37:43.983Z,17.40
2019-03-19T05:40:16.782Z,22.10
2019-03-19T05:42:49.726Z,21.93
2019-03-19T05:45:23.984Z,15.93
2019-03-19T05:47:58.208Z,22.83
2019-03-19T05:50:31.133Z,23.43
2019-03-19T05:53:03.998Z,22.07
2019-03-19T05:55:37.331Z,20.13
2019-03-19T05:58:10.181Z,12.77
2019-03-19T06:00:43.424Z,12.80
2019-03-19T06:03:16.376Z,14.20
2019-03-19T06:05:49.239Z,22.20
2019-03-19T06:08:22.025Z,18.03
2019-03-19T06:10:55.073Z,17.20
2019-03-19T06:13:27.769Z,13.27
2019-03-19T06:16:00.497Z,18.77
2019-03-19T06:18:35.344Z,22.97
2019-03-19T06:21:07.882Z,16.00
2019-03-19T06:23:40.737Z,27.03
2019-03-19T06:26:13.472Z,19.50
2019-03-19T06:28:46.150Z,21.53
2019-03-19T06:31:18.927Z,20.90
2019-03-19T06:33:51.790Z,21.40
2019-03-19T06:36:24.547Z,18.23
2019-03-19T06:38:57.245Z,16.70
2019-03-19T06:41:30.083Z,21.93
2019-03-19T06:44:03.020Z,15.37
2019-03-19T06:46:35.871Z,19.03
2019-03-19T06:49:08.821Z,29.73
2019-03-19T06:51:42.215Z,15.50
2019-03-19T06:54:15.064Z,17.37
2019-03-19T06:56:48.942Z,17.50
2019-03-19T06:59:21.749Z,22.00
2019-03-19T07:01:54.598Z,14.87
2019-03-19T07:04:27.337Z,18.77
2019-03-19T07:07:00.216Z,26.47
2019-03-19T07:09:33.046Z,20.07
2019-03-19T07:12:05.827Z,16.97
2019-03-19T07:14:38.686Z,18.33
2019-03-19T07:17:11.527Z,17.63
2019-03-19T07:19:44.422Z,25.47
2019-03-19T07:22:17.167Z,22.17
2019-03-19T07:24:49.949Z,24.17
2019-03-19T07:27:22.679Z,19.50
2019-03-19T07:29:55.412Z,27.10
2019-03-19T07:32:28.333Z,23.50
2019-03-19T07:35:01.168Z,19.33
2019-03-19T07:37:33.985Z,23.00
2019-03-19T07:40:08.895Z,20.57
2019-03-19T07:42:41.667Z,16.47
2019-03-19T07:45:15.913Z,18.20
2019-03-19T07:47:48.680Z,20.90
2019-03-19T07:50:21.560Z,20.70
2019-03-19T07:52:54.533Z,22.42
2019-03-19T07:55:27.402Z,19.87
2019-03-19T07:58:00.522Z,30.90
2019-03-19T08:00:33.419Z,21.47
2019-03-19T08:03:15.641Z,19.93
2019-03-19T08:05:40.745Z,17.40
2019-03-19T08:08:13.587Z,25.60
2019-03-19T08:10:46.406Z,33.40
2019-03-19T08:13:19.289Z,26.40
2019-03-19T08:15:52.029Z,21.90
2019-03-19T08:18:24.885Z,22.17
2019-03-19T08:20:57.659Z,22.77
2019-03-19T08:23:30.372Z,21.25
2019-03-19T08:26:03.298Z,28.93
2019-03-19T08:28:36.218Z,22.32
2019-03-19T08:31:09.102Z,35.80
2019-03-19T08:33:42.220Z,22.93
2019-03-19T08:36:15.125Z,23.52
2019-03-19T08:38:47.965Z,28.30
2019-03-19T08:41:21.788Z,26.20
2019-03-19T08:43:54.609Z,24.90
2019-03-19T08:46:29.588Z,23.80
2019-03-19T08:49:02.369Z,23.60
2019-03-19T08:51:35.097Z,21.97
2019-03-19T08:54:07.939Z,25.20
2019-03-19T08:56:40.714Z,29.48
2019-03-19T08:59:13.503Z,32.00
2019-03-19T09:01:47.398Z,31.55
2019-03-19T09:04:20.880Z,24.10
2019-03-19T09:06:53.660Z,23.27
2019-03-19T09:09:26.491Z,26.15
2019-03-19T09:11:59.426Z,29.35
2019-03-19T09:14:32.624Z,24.10
2019-03-19T09:17:05.380Z,23.13
2019-03-19T09:19:38.231Z,35.40
2019-03-19T09:22:11.258Z,15.58
2019-03-19T09:24:45.070Z,19.13
2019-03-19T09:27:17.945Z,21.02
2019-03-19T09:29:50.850Z,22.47
2019-03-19T09:32:23.777Z,22.35
2019-03-19T09:34:56.793Z,22.50
2019-03-19T09:37:29.697Z,24.13
2019-03-19T09:40:02.553Z,24.27
2019-03-19T09:42:35.455Z,25.00
2019-03-19T09:45:10.756Z,30.68
2019-03-19T09:47:44.608Z,14.33
2019-03-19T09:50:18.929Z,26.30
2019-03-19T09:52:51.730Z,32.78
2019-03-19T09:55:24.569Z,20.67
2019-03-19T09:57:57.568Z,22.00
2019-03-19T10:00:30.480Z,23.38
2019-03-19T10:03:03.388Z,21.20
2019-03-19T10:05:41.480Z,20.90
2019-03-19T10:08:14.468Z,18.07
2019-03-19T10:10:47.417Z,21.47
2019-03-19T10:13:20.575Z,18.55
2019-03-19T10:15:53.506Z,23.87
2019-03-19T10:18:26.306Z,28.32
2019-03-19T10:20:59.253Z,16.93
2019-03-19T10:23:32.084Z,19.92
2019-03-19T10:26:04.939Z,21.87
2019-03-19T10:28:38.072Z,19.80
2019-03-19T10:31:11.195Z,16.07
2019-03-19T10:33:44.131Z,24.72
2019-03-19T10:36:17.100Z,23.07
2019-03-19T10:38:49.962Z,16.95
2019-03-19T10:41:22.900Z,16.05
2019-03-19T10:43:55.648Z,24.15
2019-03-19T10:46:28.393Z,14.70
2019-03-19T10:49:01.096Z,28.25
2019-03-19T10:51:35.305Z,18.15
2019-03-19T10:54:08.361Z,23.15
2019-03-19T10:56:41.188Z,21.55
2019-03-19T10:59:14.133Z,30.17
2019-03-19T11:01:47.206Z,17.80
2019-03-19T11:04:20.244Z,27.37
2019-03-19T11:06:53.023Z,19.75
2019-03-19T11:09:25.991Z,29.00
2019-03-19T11:11:58.972Z,19.67
2019-03-19T11:14:31.841Z,15.75
2019-03-19T11:17:04.662Z,10.35
2019-03-19T11:19:38.423Z,14.53
2019-03-19T11:22:11.332Z,22.05
2019-03-19T11:24:44.260Z,21.80
2019-03-19T11:27:17.118Z,19.67
2019-03-19T11:29:59.499Z,24.95
2019-03-19T11:32:24.687Z,15.85
2019-03-19T11:34:57.513Z,22.27
2019-03-19T11:37:30.322Z,18.57
2019-03-19T11:40:03.118Z,19.57
2019-03-19T11:42:36.152Z,16.95
2019-03-19T11:45:09.714Z,23.00
2019-03-19T11:47:42.557Z,18.92
2019-03-19T11:50:18.457Z,17.35
2019-03-19T11:52:51.267Z,17.95
2019-03-19T11:55:24.183Z,23.67
2019-03-19T11:57:57.697Z,19.07
2019-03-19T12:00:33.885Z,19.77
2019-03-19T12:03:15.518Z,13.65
2019-03-19T12:05:41.970Z,22.62
2019-03-19T12:08:15.046Z,19.62
2019-03-19T12:10:47.990Z,16.67
2019-03-19T12:13:28.209Z,21.45
2019-03-19T12:16:01.118Z,17.48
2019-03-19T12:18:34.053Z,10.58
2019-03-19T12:21:06.886Z,18.20
2019-03-19T12:23:39.615Z,20.37
2019-03-19T12:26:12.411Z,18.12
2019-03-19T12:28:48.186Z,19.87
2019-03-19T12:31:20.959Z,13.48
2019-03-19T12:33:55.567Z,22.20
2019-03-19T12:36:28.349Z,20.45
2019-03-19T12:39:01.271Z,24.07
2019-03-19T12:41:35.590Z,12.88
2019-03-19T12:44:08.435Z,20.37
2019-03-19T12:46:44.340Z,17.32
2019-03-19T12:49:17.098Z,20.02
2019-03-19T12:51:50.094Z,20.57
2019-03-19T12:54:22.801Z,18.07
2019-03-19T12:56:55.710Z,20.77
2019-03-19T12:59:28.565Z,16.35
2019-03-19T13:02:01.450Z,20.08
2019-03-19T13:04:34.291Z,23.22
2019-03-19T13:07:07.254Z,15.88
2019-03-19T13:09:40.249Z,21.68
2019-03-19T13:12:13.084Z,23.85
2019-03-19T13:14:45.925Z,22.77
2019-03-19T13:17:18.684Z,20.23
2019-03-19T13:19:51.475Z,20.48
2019-03-19T13:22:24.278Z,14.85
2019-03-19T13:24:57.083Z,17.92
2019-03-19T13:27:30.016Z,20.05
2019-03-19T13:30:02.834Z,15.10
2019-03-19T13:32:36.229Z,15.55
2019-03-19T13:35:09.359Z,16.57
2019-03-19T13:37:42.297Z,12.68
2019-03-19T13:40:17.288Z,21.52
2019-03-19T13:42:50.120Z,13.62
2019-03-19T13:45:23.113Z,20.35
2019-03-19T13:47:55.896Z,13.43
2019-03-19T13:50:28.723Z,14.47
2019-03-19T13:53:01.605Z,16.62
2019-03-19T13:55:34.616Z,16.15
2019-03-19T13:58:08.215Z,13.30
2019-03-19T14:00:41.084Z,23.62
2019-03-19T14:03:13.830Z,14.73
2019-03-19T14:05:48.427Z,14.68
2019-03-19T14:08:21.198Z,16.35
2019-03-19T14:10:54.662Z,12.57
2019-03-19T14:13:28.249Z,18.20
2019-03-19T14:16:01.048Z,14.93
2019-03-19T14:18:33.894Z,15.85
2019-03-19T14:21:06.895Z,15.90
2019-03-19T14:23:39.831Z,14.47
2019-03-19T14:26:12.668Z,13.78
2019-03-19T14:28:45.479Z,14.60
2019-03-19T14:31:18.365Z,18.52
2019-03-19T14:33:51.322Z,21.60
2019-03-19T14:36:26.398Z,15.55
2019-03-19T14:38:59.283Z,18.90
2019-03-19T14:41:32.456Z,15.68
2019-03-19T14:44:05.460Z,16.30
2019-03-19T14:46:38.888Z,15.95
2019-03-19T14:49:13.539Z,19.17
2019-03-19T14:51:47.892Z,19.65
2019-03-19T14:54:23.076Z,10.78
2019-03-19T14:56:59.807Z,19.40
2019-03-19T14:59:50.017Z,15.30
2019-03-19T15:02:26.892Z,15.65
2019-03-19T15:05:08.897Z,14.30
2019-03-19T15:07:54.108Z,16.50
2019-03-19T15:10:25.729Z,12.25
2019-03-19T15:13:00.011Z,14.13
2019-03-19T15:15:35.919Z,14.90
2019-03-19T15:18:09.347Z,12.20
2019-03-19T15:20:52.957Z,17.62
2019-03-19T15:23:31.359Z,13.98
2019-03-19T15:26:04.271Z,16.20
2019-03-19T15:28:37.068Z,11.55
2019-03-19T15:31:10.018Z,11.83
2019-03-19T15:33:42.890Z,9.35
2019-03-19T15:36:15.758Z,6.45
2019-03-19T15:38:48.586Z,12.23
2019-03-19T15:41:21.411Z,14.10
2019-03-19T15:43:54.320Z,16.95
2019-03-19T15:46:27.239Z,18.42
2019-03-19T15:49:00.518Z,14.85
2019-03-19T15:51:33.478Z,11.20
2019-03-19T15:54:06.310Z,15.40
2019-03-19T15:56:39.195Z,21.00
2019-03-19T15:59:12.011Z,15.93
2019-03-19T16:01:44.765Z,11.55
2019-03-19T16:04:22.532Z,16.17
2019-03-19T16:06:55.738Z,14.33
2019-03-19T16:09:28.610Z,9.68
2019-03-19T16:12:01.605Z,14.23
2019-03-19T16:14:35.534Z,13.78
2019-03-19T16:17:08.775Z,18.42
2019-03-19T16:19:41.592Z,10.73
2019-03-19T16:22:14.868Z,21.68
2019-03-19T16:24:47.672Z,14.85
2019-03-19T16:27:22.410Z,16.93
2019-03-19T16:29:58.224Z,12.58
2019-03-19T16:32:31.037Z,14.13
2019-03-19T16:35:04.186Z,13.35
2019-03-19T16:37:39.611Z,42.43
2019-03-19T16:40:19.505Z,23.20
2019-03-19T16:42:52.559Z,18.40
2019-03-19T16:45:25.442Z,13.50
2019-03-19T16:47:58.386Z,18.20
2019-03-19T16:50:31.621Z,15.90
2019-03-19T16:53:04.649Z,11.78
2019-03-19T16:55:37.440Z,13.40
2019-03-19T16:58:10.230Z,17.97
2019-03-19T17:00:44.590Z,16.75
2019-03-19T17:03:17.587Z,13.55
2019-03-19T17:05:52.085Z,14.47
2019-03-19T17:08:25.606Z,17.60
2019-03-19T17:10:59.705Z,16.57
2019-03-19T17:13:32.707Z,17.23
2019-03-19T17:16:05.660Z,26.68
2019-03-19T17:18:39.189Z,34.65
2019-03-19T17:21:11.964Z,41.90
2019-03-19T17:23:44.899Z,47.37
2019-03-19T17:26:17.632Z,36.93
2019-03-19T17:28:51.124Z,30.60
2019-03-19T17:31:24.089Z,29.20
2019-03-19T17:33:57.219Z,24.92
2019-03-19T17:36:30.125Z,23.10
2019-03-19T17:39:02.969Z,24.43
2019-03-19T17:41:36.010Z,18.23
2019-03-19T17:44:08.899Z,20.27
2019-03-19T17:46:41.695Z,24.93
2019-03-19T17:49:14.640Z,21.43
2019-03-19T17:51:47.519Z,20.13
2019-03-19T17:54:20.391Z,21.37
2019-03-19T17:56:55.125Z,23.40
2019-03-19T17:59:30.572Z,24.43
2019-03-19T18:02:03.573Z,23.98
2019-03-19T18:04:36.595Z,30.60
2019-03-19T18:07:09.619Z,28.33
2019-03-19T18:09:42.712Z,46.70
2019-03-19T18:12:18.529Z,47.33
2019-03-19T18:14:51.241Z,57.07
2019-03-19T18:17:24.305Z,84.57
2019-03-19T18:19:57.538Z,70.63
2019-03-19T18:22:30.701Z,61.57
2019-03-19T18:25:03.645Z,74.90
2019-03-19T18:27:39.172Z,59.57
2019-03-19T18:30:13.613Z,54.83
2019-03-19T18:32:46.685Z,47.47
2019-03-19T18:35:19.465Z,68.97
2019-03-19T18:37:52.352Z,86.97
2019-03-19T18:40:25.257Z,106.53
2019-03-19T18:42:58.246Z,104.17
2019-03-19T18:45:30.981Z,79.70
2019-03-19T18:48:03.883Z,91.87
2019-03-19T18:50:36.831Z,71.50
2019-03-19T18:53:09.687Z,63.83
2019-03-19T18:55:43.158Z,56.80
2019-03-19T18:58:15.920Z,56.33
2019-03-19T19:00:49.554Z,63.17
2019-03-19T19:03:22.400Z,54.93
2019-03-19T19:05:55.116Z,55.63
2019-03-19T19:08:27.820Z,57.77
2019-03-19T19:11:00.621Z,63.23
2019-03-19T19:13:33.899Z,71.33
2019-03-19T19:16:06.778Z,60.90
2019-03-19T19:18:39.534Z,76.20
2019-03-19T19:21:12.398Z,76.90
2019-03-19T19:23:46.157Z,74.27
2019-03-19T19:26:18.980Z,71.90
2019-03-19T19:28:51.923Z,83.17
2019-03-19T19:31:24.788Z,88.63
2019-03-19T19:33:57.870Z,102.00
2019-03-19T19:36:30.887Z,182.23
2019-03-19T19:39:07.813Z,158.83
2019-03-19T19:41:43.807Z,249.40
2019-03-19T19:44:16.671Z,199.37
2019-03-19T19:46:49.552Z,130.70
2019-03-19T19:49:22.544Z,97.17
2019-03-19T19:51:55.846Z,96.57
2019-03-19T19:54:35.568Z,86.80
2019-03-19T19:57:23.093Z,84.53
2019-03-19T20:00:05.525Z,92.03
2019-03-19T20:02:45.208Z,96.00
2019-03-19T20:05:27.697Z,74.90
2019-03-19T20:08:04.175Z,84.83
2019-03-19T20:10:37.073Z,107.03
2019-03-19T20:13:13.766Z,121.47
2019-03-19T20:15:46.838Z,148.37
2019-03-19T20:18:19.855Z,135.33
2019-03-19T20:20:52.866Z,109.47
2019-03-19T20:23:25.807Z,101.93
2019-03-19T20:25:58.796Z,126.10
2019-03-19T20:28:31.809Z,133.63
2019-03-19T20:31:04.960Z,141.37
2019-03-19T20:33:38.155Z,139.00
2019-03-19T20:36:11.410Z,190.30
2019-03-19T20:38:47.053Z,372.03
2019-03-19T20:41:20.085Z,368.07
2019-03-19T20:43:53.062Z,311.37
2019-03-19T20:46:26.187Z,323.23
2019-03-19T20:48:59.525Z,338.50
2019-03-19T20:51:32.821Z,366.37
2019-03-19T20:54:06.184Z,455.77
2019-03-19T20:56:39.106Z,469.73
2019-03-19T20:59:11.897Z,493.63
2019-03-19T21:01:44.777Z,477.00
2019-03-19T21:04:17.860Z,417.60
2019-03-19T21:06:50.769Z,455.47
2019-03-19T21:09:24.647Z,437.57
2019-03-19T21:11:57.647Z,347.40
2019-03-19T21:14:30.487Z,361.50
2019-03-19T21:17:03.515Z,360.70
2019-03-19T21:19:37.245Z,283.83
2019-03-19T21:22:10.078Z,262.97
2019-03-19T21:24:42.953Z,241.60
2019-03-19T21:27:15.786Z,241.07
2019-03-19T21:29:48.775Z,245.90
2019-03-19T21:32:21.712Z,222.23
2019-03-19T21:34:54.582Z,209.07
2019-03-19T21:37:27.522Z,266.57
2019-03-19T21:40:00.439Z,306.67
2019-03-19T21:42:33.342Z,284.53
2019-03-19T21:45:07.589Z,304.27
2019-03-19T21:47:40.470Z,268.40
2019-03-19T21:50:14.726Z,232.67
2019-03-19T21:52:47.587Z,199.13
2019-03-19T21:55:20.662Z,157.13
2019-03-19T21:57:53.568Z,148.53
2019-03-19T22:00:26.536Z,139.07
2019-03-19T22:02:59.387Z,122.93
2019-03-19T22:05:32.306Z,147.33
2019-03-19T22:08:05.054Z,165.03
2019-03-19T22:10:37.936Z,156.17
2019-03-19T22:13:10.928Z,130.30
2019-03-19T22:15:43.773Z,125.90
2019-03-19T22:18:16.762Z,131.27
2019-03-19T22:20:49.546Z,112.53
2019-03-19T22:23:22.323Z,114.47
2019-03-19T22:25:55.294Z,118.23
2019-03-19T22:28:28.144Z,107.03
2019-03-19T22:31:01.117Z,108.50
2019-03-19T22:33:33.906Z,121.20
2019-03-19T22:36:06.811Z,119.60
2019-03-19T22:38:39.804Z,124.00
2019-03-19T22:41:12.656Z,131.77
2019-03-19T22:43:45.669Z,120.60
2019-03-19T22:46:21.973Z,148.70
2019-03-19T23:46:06.786Z,130.63
2019-03-19T23:48:39.710Z,143.87
2019-03-19T23:51:12.549Z,120.30
2019-03-19T23:53:45.477Z,120.90
2019-03-19T23:56:18.331Z,141.33
2019-03-19T23:58:51.169Z,131.87
